Time;durP1;ratioP1;P1;durP2;ratioP2;P2;SDS_P1;SDS_P2;PMS_P1;PMS_P2;Temp;Humidity;BMP_temperature;BMP_pressure;BME280_temperature;BME280_humidity;BME280_pressure;Samples;Min_cycle;Max_cycle;Signal;HPM_P1;HPM_P2
2021/04/11 00:02:00;;;;;;;1.50;1.40;;;24.40;57.90;;;;;;5095298;28;20494;-86
2021/04/11 00:04:27;;;;;;;1.30;1.20;;;24.40;57.90;;;;;;5095626;28;20495;-86
2021/04/11 00:06:53;;;;;;;1.47;1.33;;;24.50;57.90;;;;;;5095301;28;20443;-85
2021/04/11 00:09:20;;;;;;;2.90;1.20;;;24.40;57.90;;;;;;5095360;28;20793;-85
2021/04/11 00:11:46;;;;;;;1.20;1.10;;;24.40;58.40;;;;;;5095143;28;20762;-85
2021/04/11 00:14:12;;;;;;;1.10;1.00;;;24.40;57.90;;;;;;5095616;28;20442;-85
2021/04/11 00:16:38;;;;;;;1.60;1.50;;;24.40;57.90;;;;;;5095197;28;20967;-86
2021/04/11 00:19:05;;;;;;;1.27;1.17;;;24.40;57.90;;;;;;5095472;28;20438;-86
2021/04/11 00:21:32;;;;;;;1.30;1.20;;;24.40;57.80;;;;;;5095082;28;20505;-86
2021/04/11 00:23:58;;;;;;;1.10;1.00;;;24.40;57.90;;;;;;5095654;28;20489;-86
2021/04/11 00:26:25;;;;;;;1.30;1.20;;;24.40;57.90;;;;;;5095235;28;20474;-85
2021/04/11 00:28:51;;;;;;;1.30;1.20;;;24.40;57.90;;;;;;5095335;28;20518;-85
2021/04/11 00:31:17;;;;;;;1.40;1.30;;;24.30;57.90;;;;;;5095141;28;20537;-86
2021/04/11 00:33:44;;;;;;;1.10;1.00;;;24.30;57.90;;;;;;5094961;28;20443;-86
2021/04/11 00:36:14;;;;;;;1.30;1.20;;;24.40;58.00;;;;;;5094767;28;20450;-86
2021/04/11 00:38:41;;;;;;;1.27;1.17;;;24.40;57.90;;;;;;5094900;28;20508;-85
2021/04/11 00:41:14;;;;;;;1.63;1.53;;;24.40;57.90;;;;;;5094879;28;20494;-85
2021/04/11 00:43:42;;;;;;;1.50;1.20;;;24.40;58.60;;;;;;5094905;28;20443;-86
2021/04/11 00:46:18;;;;;;;1.10;1.00;;;24.30;57.90;;;;;;5094921;28;20439;-86
2021/04/11 00:48:46;;;;;;;1.20;1.10;;;24.30;57.90;;;;;;5094959;28;20450;-85
2021/04/11 00:51:15;;;;;;;1.10;1.00;;;24.30;57.90;;;;;;5094341;28;20506;-86
2021/04/11 00:53:43;;;;;;;1.20;1.03;;;24.30;57.90;;;;;;5094062;28;20557;-85
2021/04/11 00:56:11;;;;;;;1.10;1.00;;;24.30;57.90;;;;;;5094458;28;20462;-86
2021/04/11 00:58:38;;;;;;;1.50;1.30;;;24.30;57.90;;;;;;5094349;28;20444;-85
2021/04/11 01:01:06;;;;;;;1.40;1.30;;;24.30;58.00;;;;;;5093935;28;20501;-85
2021/04/11 01:03:34;;;;;;;1.10;1.00;;;24.30;57.90;;;;;;5094217;28;20537;-85
2021/04/11 01:06:02;;;;;;;1.10;1.00;;;24.30;57.90;;;;;;5093976;28;20972;-85
2021/04/11 01:08:31;;;;;;;1.60;1.50;;;24.30;57.90;;;;;;5094139;28;20441;-85
2021/04/11 01:11:02;;;;;;;1.30;1.20;;;24.30;58.00;;;;;;5093953;28;20449;-85
2021/04/11 01:13:29;;;;;;;1.63;1.17;;;24.30;58.00;;;;;;5093968;28;20450;-84
2021/04/11 01:15:56;;;;;;;1.50;1.40;;;24.30;58.00;;;;;;5093970;28;20787;-84
2021/04/11 01:18:23;;;;;;;1.20;1.10;;;24.20;57.90;;;;;;5094059;28;20438;-85
2021/04/11 01:20:52;;;;;;;1.10;1.00;;;24.20;57.90;;;;;;5093835;28;20476;-85
2021/04/11 01:23:27;;;;;;;1.20;1.00;;;24.40;58.00;;;;;;5093706;28;20572;-84
2021/04/11 01:25:57;;;;;;;1.40;1.30;;;24.20;57.90;;;;;;5093777;28;20932;-85
2021/04/11 01:28:29;;;;;;;1.00;0.80;;;24.20;57.80;;;;;;5093713;28;20438;-85
2021/04/11 01:30:58;;;;;;;1.13;0.90;;;24.20;57.90;;;;;;5093241;28;20452;-85
2021/04/11 01:33:28;;;;;;;1.23;1.13;;;24.20;57.90;;;;;;5093709;28;20442;-84
2021/04/11 01:35:57;;;;;;;1.10;1.00;;;24.20;57.90;;;;;;5093945;28;20445;-84
2021/04/11 01:38:25;;;;;;;1.20;1.03;;;24.20;57.90;;;;;;5093835;28;20453;-84
2021/04/11 01:40:58;;;;;;;1.13;1.03;;;24.20;57.90;;;;;;5093802;28;20477;-84
2021/04/11 01:43:25;;;;;;;1.20;0.97;;;24.20;57.80;;;;;;5093914;28;20964;-84
2021/04/11 01:46:07;;;;;;;1.10;0.90;;;24.20;57.90;;;;;;5093715;28;20441;-84
2021/04/11 01:48:34;;;;;;;1.30;1.10;;;24.20;57.80;;;;;;5093967;28;20441;-84
2021/04/11 01:51:03;;;;;;;1.27;1.17;;;24.20;57.80;;;;;;5093821;28;20448;-84
2021/04/11 01:53:30;;;;;;;1.10;1.00;;;24.20;57.90;;;;;;5093474;28;20468;-84
2021/04/11 01:55:58;;;;;;;1.30;1.20;;;24.20;57.80;;;;;;5093715;28;20438;-84
2021/04/11 01:58:26;;;;;;;1.13;1.03;;;24.20;57.90;;;;;;5093468;28;20446;-84
2021/04/11 02:01:04;;;;;;;1.23;1.13;;;24.20;57.90;;;;;;5093113;28;20484;-85
2021/04/11 02:03:31;;;;;;;1.20;1.10;;;24.30;57.90;;;;;;5093479;28;20444;-85
2021/04/11 02:06:03;;;;;;;1.30;1.07;;;24.30;58.00;;;;;;5093417;28;20438;-85
2021/04/11 02:08:30;;;;;;;1.30;1.20;;;24.20;57.80;;;;;;5093455;28;20451;-85
2021/04/11 02:10:58;;;;;;;1.10;1.00;;;24.30;57.90;;;;;;5093554;28;20535;-85
2021/04/11 02:13:27;;;;;;;1.13;1.03;;;24.20;57.80;;;;;;5093568;28;20491;-84
2021/04/11 02:15:57;;;;;;;1.23;1.13;;;24.20;57.90;;;;;;5093242;28;20459;-84
2021/04/11 02:18:24;;;;;;;1.10;0.90;;;24.30;57.90;;;;;;5093777;28;20445;-84
2021/04/11 02:20:51;;;;;;;1.43;1.23;;;24.20;57.80;;;;;;5093300;28;20486;-84
2021/04/11 02:23:18;;;;;;;1.10;1.00;;;24.20;57.90;;;;;;5093376;28;20467;-84
2021/04/11 02:25:47;;;;;;;3.53;1.20;;;24.20;57.90;;;;;;5093428;28;20449;-84
2021/04/11 02:28:16;;;;;;;1.50;1.10;;;24.20;57.80;;;;;;5093459;28;20434;-84
2021/04/11 02:30:46;;;;;;;1.00;0.90;;;24.20;57.80;;;;;;5093439;28;20436;-84
2021/04/11 02:33:12;;;;;;;1.07;0.90;;;24.20;57.80;;;;;;5093242;28;20794;-84
2021/04/11 02:35:39;;;;;;;1.10;0.97;;;24.20;57.90;;;;;;5093081;28;20449;-84
2021/04/11 02:38:08;;;;;;;1.27;1.10;;;24.30;57.90;;;;;;5093176;28;20434;-84
2021/04/11 02:40:37;;;;;;;1.70;1.17;;;24.30;57.90;;;;;;5093397;28;20887;-84
2021/04/11 02:43:06;;;;;;;1.20;1.10;;;24.20;57.90;;;;;;5095278;28;20812;-84
2021/04/11 02:45:37;;;;;;;1.00;0.90;;;24.20;57.90;;;;;;5096953;28;20434;-84
2021/04/11 02:48:04;;;;;;;1.10;0.90;;;24.40;57.90;;;;;;5096951;28;20517;-84
2021/04/11 02:50:33;;;;;;;1.30;1.20;;;24.30;58.40;;;;;;5096837;28;20444;-84
2021/04/11 02:53:03;;;;;;;1.20;1.10;;;24.20;57.90;;;;;;5096699;28;20443;-84
2021/04/11 02:55:33;;;;;;;1.10;1.00;;;24.30;57.90;;;;;;5096844;28;20445;-84
2021/04/11 02:58:00;;;;;;;1.20;1.00;;;24.20;57.90;;;;;;5096797;28;20431;-84
2021/04/11 03:00:29;;;;;;;1.30;1.20;;;24.20;57.90;;;;;;5096507;28;20524;-84
2021/04/11 03:02:56;;;;;;;1.00;0.87;;;24.20;57.90;;;;;;5096789;28;20922;-84
2021/04/11 03:05:27;;;;;;;1.10;0.90;;;24.20;57.80;;;;;;5096961;28;20959;-84
2021/04/11 03:08:02;;;;;;;1.40;1.03;;;24.20;57.80;;;;;;5096519;28;20962;-84
2021/04/11 03:10:35;;;;;;;1.30;1.20;;;24.20;57.80;;;;;;5096648;28;20448;-84
2021/04/11 03:13:03;;;;;;;1.47;1.37;;;24.20;57.80;;;;;;5096545;28;20479;-84
2021/04/11 03:15:40;;;;;;;1.53;1.43;;;24.20;57.80;;;;;;5096569;28;20931;-84
2021/04/11 03:18:10;;;;;;;1.60;1.50;;;24.30;57.90;;;;;;5096340;28;20970;-84
2021/04/11 03:20:39;;;;;;;1.37;1.27;;;24.20;57.80;;;;;;5096893;28;20434;-83
2021/04/11 03:23:07;;;;;;;1.40;1.30;;;24.20;57.90;;;;;;5096410;28;20500;-83
2021/04/11 03:25:36;;;;;;;1.53;1.43;;;24.20;57.80;;;;;;5096655;28;20437;-84
2021/04/11 03:28:06;;;;;;;1.17;1.07;;;24.20;57.90;;;;;;5096290;28;20444;-83
2021/04/11 03:30:37;;;;;;;1.30;1.20;;;24.20;57.80;;;;;;5096584;28;20439;-83
2021/04/11 03:33:09;;;;;;;1.50;1.40;;;24.20;57.80;;;;;;5096229;28;20993;-84
2021/04/11 03:35:40;;;;;;;1.50;1.40;;;24.20;57.80;;;;;;5096211;28;20426;-83
2021/04/11 03:38:10;;;;;;;1.23;1.13;;;24.20;57.80;;;;;;5096273;28;20438;-84
2021/04/11 03:40:39;;;;;;;1.37;1.27;;;24.20;57.80;;;;;;5096028;28;20498;-84
2021/04/11 03:43:10;;;;;;;1.17;1.07;;;24.20;57.80;;;;;;5095912;28;20443;-83
2021/04/11 03:45:36;;;;;;;1.10;0.97;;;24.20;57.80;;;;;;5096056;28;20438;-85
2021/04/11 03:48:09;;;;;;;1.10;0.93;;;24.20;57.70;;;;;;5096002;28;20490;-84
2021/04/11 03:50:41;;;;;;;1.17;1.07;;;24.20;57.70;;;;;;5095775;28;20534;-84
2021/04/11 03:53:11;;;;;;;1.20;1.10;;;24.20;57.70;;;;;;5095402;28;20470;-84
2021/04/11 03:55:42;;;;;;;1.17;1.07;;;24.20;57.70;;;;;;5095695;28;20936;-84
2021/04/11 03:58:15;;;;;;;1.00;0.90;;;24.20;57.70;;;;;;5095819;28;20429;-84
2021/04/11 04:00:46;;;;;;;1.10;1.00;;;24.20;57.70;;;;;;5095495;28;20469;-84
2021/04/11 04:03:19;;;;;;;1.80;1.17;;;24.20;57.70;;;;;;5095870;28;20449;-84
2021/04/11 04:05:47;;;;;;;1.30;1.10;;;24.20;57.60;;;;;;5095575;28;20786;-84
2021/04/11 04:08:15;;;;;;;1.20;1.10;;;24.20;57.70;;;;;;5095504;28;20447;-84
2021/04/11 04:10:44;;;;;;;1.10;1.00;;;24.20;57.60;;;;;;5095413;28;20444;-83
2021/04/11 04:13:38;;;;;;;1.30;1.07;;;24.20;57.60;;;;;;5095682;28;20442;-85
2021/04/11 04:16:17;;;;;;;1.10;1.00;;;24.20;57.50;;;;;;5095281;28;20445;-84
2021/04/11 04:19:02;;;;;;;1.17;1.07;;;24.20;57.60;;;;;;5095659;28;20532;-84
2021/04/11 04:21:55;;;;;;;1.10;1.00;;;24.20;57.50;;;;;;5095341;28;20488;-84
2021/04/11 04:24:40;;;;;;;1.10;1.00;;;24.20;57.50;;;;;;5095039;28;20473;-84
2021/04/11 04:27:22;;;;;;;1.20;1.10;;;24.30;57.70;;;;;;5095213;28;20443;-84
2021/04/11 04:30:03;;;;;;;1.13;1.03;;;24.20;57.50;;;;;;5095374;28;20446;-84
2021/04/11 04:32:35;;;;;;;1.00;0.80;;;24.20;57.50;;;;;;5095093;28;20446;-84
2021/04/11 04:35:17;;;;;;;1.10;1.00;;;24.20;57.50;;;;;;5095010;28;20457;-84
2021/04/11 04:37:57;;;;;;;1.00;0.90;;;24.20;57.50;;;;;;5095146;28;20529;-84
2021/04/11 04:40:36;;;;;;;0.90;0.70;;;24.20;57.50;;;;;;5095013;28;20434;-84
2021/04/11 04:43:10;;;;;;;1.10;1.00;;;24.20;57.50;;;;;;5094874;28;20542;-84
2021/04/11 04:45:42;;;;;;;1.30;1.20;;;24.20;57.50;;;;;;5094609;28;20437;-84
2021/04/11 04:48:15;;;;;;;1.00;0.90;;;24.20;57.50;;;;;;5094719;28;20450;-84
2021/04/11 04:50:49;;;;;;;1.13;1.00;;;24.20;57.50;;;;;;5094951;28;20784;-84
2021/04/11 04:53:21;;;;;;;1.00;0.90;;;24.20;57.40;;;;;;5094595;28;20457;-84
2021/04/11 04:55:51;;;;;;;1.03;0.90;;;24.20;58.00;;;;;;5094616;28;20441;-84
2021/04/11 04:58:21;;;;;;;1.00;0.80;;;24.20;57.40;;;;;;5094689;28;20434;-84
2021/04/11 05:00:53;;;;;;;1.10;0.93;;;24.20;57.40;;;;;;5094540;28;20478;-84
2021/04/11 05:03:23;;;;;;;1.10;0.97;;;24.20;57.40;;;;;;5094493;28;20453;-84
2021/04/11 05:06:07;;;;;;;1.03;0.80;;;24.20;57.40;;;;;;5093798;28;20433;-84
2021/04/11 05:08:38;;;;;;;1.10;1.00;;;24.20;57.30;;;;;;5094462;28;20479;-84
2021/04/11 05:11:11;;;;;;;1.20;1.00;;;24.20;57.30;;;;;;5094350;28;20470;-84
2021/04/11 05:13:43;;;;;;;1.00;0.90;;;24.20;57.30;;;;;;5094164;28;20449;-84
2021/04/11 05:16:14;;;;;;;0.90;0.70;;;24.20;57.30;;;;;;5094181;28;20922;-84
2021/04/11 05:18:44;;;;;;;1.07;0.93;;;24.20;57.30;;;;;;5094243;28;20442;-84
2021/04/11 05:21:17;;;;;;;1.20;1.10;;;24.20;57.20;;;;;;5094215;28;20465;-83
2021/04/11 05:23:49;;;;;;;0.90;0.70;;;24.30;57.30;;;;;;5094245;28;20796;-84
2021/04/11 05:26:18;;;;;;;1.00;0.80;;;24.20;57.30;;;;;;5094324;28;20442;-84
2021/04/11 05:28:51;;;;;;;1.00;0.90;;;24.20;57.20;;;;;;5094169;28;20450;-84
2021/04/11 05:31:21;;;;;;;1.33;1.23;;;24.20;57.20;;;;;;5094064;28;20490;-84
2021/04/11 05:33:50;;;;;;;1.27;1.17;;;24.20;57.20;;;;;;5094014;28;20445;-84
2021/04/11 05:36:33;;;;;;;1.20;1.10;;;24.20;57.20;;;;;;5094104;28;20488;-84
2021/04/11 05:39:11;;;;;;;1.20;1.10;;;24.20;57.20;;;;;;5094274;28;20435;-84
2021/04/11 05:41:43;;;;;;;1.30;1.20;;;24.20;57.10;;;;;;5093705;28;20466;-84
2021/04/11 05:44:15;;;;;;;1.10;1.00;;;24.20;57.10;;;;;;5094100;28;20427;-84
2021/04/11 05:46:46;;;;;;;1.27;1.17;;;24.20;57.10;;;;;;5093892;28;20535;-84
2021/04/11 05:49:18;;;;;;;1.23;1.13;;;24.20;57.00;;;;;;5094052;28;20927;-85
2021/04/11 05:51:51;;;;;;;1.20;1.10;;;24.20;57.10;;;;;;5093657;28;20958;-84
2021/04/11 05:54:21;;;;;;;1.40;1.30;;;24.20;57.10;;;;;;5093804;28;20547;-84
2021/04/11 05:56:50;;;;;;;1.20;1.10;;;24.20;57.00;;;;;;5093535;28;20449;-84
2021/04/11 05:59:21;;;;;;;1.73;1.63;;;24.20;57.00;;;;;;5093416;28;20447;-84
2021/04/11 06:01:51;;;;;;;1.20;1.10;;;24.20;56.90;;;;;;5093245;28;20491;-84
2021/04/11 06:04:20;;;;;;;1.10;0.90;;;24.20;57.00;;;;;;5093201;28;20485;-84
2021/04/11 06:06:54;;;;;;;1.17;1.00;;;24.20;57.00;;;;;;5093239;28;20464;-84
2021/04/11 06:09:26;;;;;;;1.07;0.97;;;24.20;57.00;;;;;;5093265;28;20448;-84
2021/04/11 06:11:59;;;;;;;1.10;1.00;;;24.20;56.90;;;;;;5093230;28;20504;-85
2021/04/11 06:14:31;;;;;;;1.20;1.10;;;24.20;56.90;;;;;;5093755;28;20498;-84
2021/04/11 06:16:57;;;;;;;1.20;1.00;;;24.20;56.90;;;;;;5095481;28;20499;-85
2021/04/11 06:19:24;;;;;;;1.07;0.97;;;24.20;56.80;;;;;;5097723;28;20446;-84
2021/04/11 06:21:58;;;;;;;1.10;0.90;;;24.20;56.90;;;;;;5097553;28;20496;-84
2021/04/11 06:24:34;;;;;;;1.10;0.90;;;24.30;57.00;;;;;;5097598;28;20473;-84
2021/04/11 06:27:10;;;;;;;1.10;1.00;;;24.20;56.90;;;;;;5097580;28;20441;-84
2021/04/11 06:29:47;;;;;;;1.10;1.00;;;24.20;56.80;;;;;;5097476;28;20925;-84
2021/04/11 06:32:14;;;;;;;1.00;0.90;;;24.20;56.90;;;;;;5097208;28;20447;-84
2021/04/11 06:34:45;;;;;;;1.10;1.00;;;24.20;56.90;;;;;;5097567;28;20488;-84
2021/04/11 06:37:17;;;;;;;1.23;1.13;;;24.20;56.80;;;;;;5097588;28;20427;-84
2021/04/11 06:39:46;;;;;;;1.20;1.00;;;24.20;56.80;;;;;;5097425;28;20449;-84
2021/04/11 06:42:32;;;;;;;1.20;1.00;;;24.20;56.70;;;;;;5097061;28;20482;-83
2021/04/11 06:45:25;;;;;;;1.10;1.00;;;24.20;56.70;;;;;;5097258;28;20436;-84
2021/04/11 06:48:25;;;;;;;1.00;0.90;;;24.20;56.70;;;;;;5097137;28;20442;-84
2021/04/11 06:51:18;;;;;;;1.30;1.20;;;24.20;56.70;;;;;;5097094;28;20467;-84
2021/04/11 06:54:26;;;;;;;1.30;1.20;;;24.20;56.70;;;;;;5096978;28;20470;-84
2021/04/11 06:57:13;;;;;;;1.03;0.90;;;24.20;56.70;;;;;;5097138;28;20474;-83
2021/04/11 06:59:51;;;;;;;1.10;1.00;;;24.20;56.70;;;;;;5094213;28;20786;-84
2021/04/11 07:03:16;;;;;;;1.40;1.30;;;24.20;56.70;;;;;;5096834;28;20506;-84
2021/04/11 07:06:00;;;;;;;1.10;1.00;;;24.20;56.60;;;;;;5060611;28;20439;-84
2021/04/11 07:08:55;;;;;;;1.20;1.10;;;24.30;56.80;;;;;;5096674;28;20450;-83
2021/04/11 07:11:56;;;;;;;1.30;1.20;;;24.20;56.50;;;;;;5096888;28;20492;-84
2021/04/11 07:14:50;;;;;;;1.37;1.27;;;24.20;56.60;;;;;;5096847;28;20435;-84
2021/04/11 07:17:48;;;;;;;1.20;1.10;;;24.20;56.50;;;;;;5096600;28;20762;-84
2021/04/11 07:20:44;;;;;;;1.20;1.10;;;24.20;56.50;;;;;;5096560;28;20446;-83
2021/04/11 07:23:51;;;;;;;1.20;1.10;;;24.20;56.50;;;;;;5096375;28;20493;-84
2021/04/11 07:26:48;;;;;;;1.23;1.13;;;24.20;56.40;;;;;;5096361;28;20986;-84
2021/04/11 07:29:26;;;;;;;1.40;1.30;;;24.20;56.60;;;;;;5082833;28;20808;-84
2021/04/11 07:32:24;;;;;;;1.27;1.17;;;24.20;56.60;;;;;;5096372;28;20441;-84
2021/04/11 07:34:58;;;;;;;1.10;1.00;;;24.20;56.60;;;;;;5096426;28;20496;-84
2021/04/11 07:37:47;;;;;;;1.30;1.20;;;24.20;56.60;;;;;;5096209;28;20448;-84
2021/04/11 07:40:22;;;;;;;1.10;1.00;;;24.20;56.60;;;;;;5093686;28;20447;-84
2021/04/11 07:43:10;;;;;;;1.40;1.30;;;24.20;56.60;;;;;;5096222;28;20489;-84
2021/04/11 07:46:13;;;;;;;1.20;1.10;;;24.20;56.60;;;;;;5096020;28;20438;-84
2021/04/11 07:49:19;;;;;;;1.10;1.00;;;24.20;56.60;;;;;;5076087;28;20434;-84
2021/04/11 07:52:07;;;;;;;1.00;0.90;;;24.20;56.60;;;;;;5075592;28;21016;-86
2021/04/11 07:54:50;;;;;;;1.30;1.10;;;24.20;56.70;;;;;;5073698;28;20981;-83
2021/04/11 07:57:40;;;;;;;3.83;1.73;;;24.30;56.00;;;;;;5076072;28;20495;-84
2021/04/11 08:00:15;;;;;;;1.57;1.47;;;24.10;54.50;;;;;;5075418;28;20471;-83
2021/04/11 08:03:09;;;;;;;1.53;1.10;;;24.10;55.40;;;;;;5075414;28;20492;-86
2021/04/11 08:06:17;;;;;;;1.20;1.10;;;24.10;56.20;;;;;;5071309;28;20977;-86
2021/04/11 08:09:18;;;;;;;1.53;1.00;;;24.10;56.40;;;;;;5075149;28;20470;-85
2021/04/11 08:12:21;;;;;;;1.70;1.27;;;24.10;56.60;;;;;;5052765;28;20462;-87
2021/04/11 08:14:55;;;;;;;2.47;1.37;;;24.10;56.30;;;;;;5074964;28;21325;-84
2021/04/11 08:17:39;;;;;;;1.83;1.40;;;24.10;56.50;;;;;;5075494;28;20434;-87
2021/04/11 08:20:21;;;;;;;1.20;1.07;;;24.20;56.60;;;;;;5074929;28;20438;-89
2021/04/11 08:23:04;;;;;;;4.90;1.10;;;24.20;56.70;;;;;;5074878;28;20490;-85
2021/04/11 08:25:37;;;;;;;1.30;1.20;;;24.20;56.60;;;;;;5075009;28;20426;-87
2021/04/11 08:28:36;;;;;;;1.13;1.03;;;24.20;56.80;;;;;;5075126;28;20992;-88
2021/04/11 08:31:25;;;;;;;3.50;1.00;;;24.20;56.70;;;;;;5054771;28;20468;-89
2021/04/11 08:34:16;;;;;;;6.37;1.17;;;24.20;56.80;;;;;;5094097;28;20930;-88
2021/04/11 08:37:08;;;;;;;2.07;1.10;;;24.20;56.80;;;;;;5094350;28;20438;-86
2021/04/11 08:39:53;;;;;;;1.20;1.00;;;24.20;56.80;;;;;;5093607;28;20435;-88
2021/04/11 08:42:35;;;;;;;1.70;1.20;;;24.20;56.80;;;;;;5073862;28;20497;-88
2021/04/11 08:45:30;;;;;;;1.10;1.00;;;24.30;57.00;;;;;;5094156;28;20443;-88
2021/04/11 08:48:19;;;;;;;1.40;1.10;;;24.30;57.00;;;;;;5092312;28;20483;-88
2021/04/11 08:50:51;;;;;;;2.17;1.00;;;24.20;57.00;;;;;;5092766;28;20434;-87
2021/04/11 08:53:31;;;;;;;1.10;1.00;;;24.20;57.00;;;;;;5091599;28;20466;-88
2021/04/11 08:56:06;;;;;;;1.10;1.00;;;24.30;57.10;;;;;;5094724;28;20452;-86
2021/04/11 08:58:39;;;;;;;3.37;0.90;;;24.30;57.30;;;;;;5094827;28;20926;-87
2021/04/11 09:01:19;;;;;;;3.03;1.13;;;24.30;57.30;;;;;;5094293;28;20882;-88
2021/04/11 09:04:08;;;;;;;1.00;0.90;;;24.30;57.20;;;;;;5074160;28;20451;-88
2021/04/11 09:06:48;;;;;;;1.10;0.90;;;24.30;57.20;;;;;;5074216;28;20474;-88
2021/04/11 09:09:33;;;;;;;1.23;1.00;;;24.30;57.30;;;;;;5087679;28;20983;-88
2021/04/11 09:12:12;;;;;;;1.00;0.90;;;24.30;57.30;;;;;;5091461;28;20832;-88
2021/04/11 09:14:56;;;;;;;1.00;0.90;;;24.30;57.40;;;;;;5090901;28;20443;-88
2021/04/11 09:17:51;;;;;;;2.20;1.00;;;24.30;57.30;;;;;;5091854;28;20871;-86
2021/04/11 09:20:23;;;;;;;1.30;1.00;;;24.30;57.30;;;;;;5093584;28;20442;-88
2021/04/11 09:23:05;;;;;;;1.20;0.93;;;24.20;57.40;;;;;;5088893;28;20494;-88
2021/04/11 09:25:36;;;;;;;1.20;1.10;;;24.30;57.30;;;;;;5094131;28;20924;-87
2021/04/11 09:28:22;;;;;;;1.30;0.90;;;24.30;57.40;;;;;;5094116;28;20457;-91
2021/04/11 09:31:33;;;;;;;1.17;1.00;;;24.30;57.20;;;;;;5094522;28;20438;-92
2021/04/11 09:34:38;;;;;;;1.10;0.90;;;24.30;57.30;;;;;;5038199;28;20980;-92
2021/04/11 09:37:28;;;;;;;2.30;1.07;;;24.30;57.70;;;;;;5074284;28;20450;-92
2021/04/11 09:40:05;;;;;;;1.93;1.83;;;24.30;57.70;;;;;;5073760;28;20937;-90
2021/04/11 09:42:56;;;;;;;7.33;1.13;;;24.30;57.70;;;;;;5073631;28;20487;-92
2021/04/11 09:45:34;;;;;;;2.30;1.00;;;24.30;57.40;;;;;;5073610;28;20464;-91
2021/04/11 09:48:28;;;;;;;1.20;1.00;;;24.30;57.40;;;;;;5073818;28;20454;-91
2021/04/11 09:51:05;;;;;;;1.57;0.90;;;24.30;57.10;;;;;;5073412;28;20450;-90
2021/04/11 09:53:49;;;;;;;1.40;1.00;;;24.30;58.00;;;;;;5073670;28;20478;-92
2021/04/11 09:56:28;;;;;;;2.03;1.10;;;24.40;57.30;;;;;;5073645;28;20532;-85
2021/04/11 09:59:24;;;;;;;1.07;0.80;;;24.40;57.50;;;;;;5073287;28;20439;-87
2021/04/11 10:01:54;;;;;;;4.40;1.20;;;24.40;57.50;;;;;;5073077;28;20483;-85
2021/04/11 10:04:45;;;;;;;1.10;1.00;;;24.40;57.60;;;;;;5073404;28;20464;-88
2021/04/11 10:07:32;;;;;;;3.43;1.00;;;24.40;57.80;;;;;;5074440;28;20829;-86
2021/04/11 10:10:11;;;;;;;2.70;1.03;;;24.40;57.80;;;;;;5073192;28;20443;-85
2021/04/11 10:13:05;;;;;;;2.50;0.80;;;24.40;57.90;;;;;;5073505;28;20776;-85
2021/04/11 10:15:38;;;;;;;2.93;0.70;;;24.40;57.70;;;;;;5073113;28;20533;-90
2021/04/11 10:18:21;;;;;;;2.40;0.90;;;24.40;57.80;;;;;;5073202;28;20476;-85
2021/04/11 10:20:57;;;;;;;2.60;0.80;;;24.40;57.70;;;;;;5073543;28;20444;-86
2021/04/11 10:23:34;;;;;;;2.40;0.70;;;24.40;57.50;;;;;;5073286;28;20492;-85
2021/04/11 10:26:04;;;;;;;2.80;0.90;;;24.50;57.60;;;;;;5082630;28;20440;-80
2021/04/11 10:28:40;;;;;;;1.30;0.80;;;24.40;57.60;;;;;;5093343;28;20788;-83
2021/04/11 10:31:17;;;;;;;3.23;0.80;;;24.50;57.60;;;;;;5093259;28;20452;-84
2021/04/11 10:33:50;;;;;;;1.10;0.70;;;24.50;57.60;;;;;;5093148;28;20801;-83
2021/04/11 10:36:23;;;;;;;2.37;1.03;;;24.50;57.50;;;;;;5093347;28;20439;-83
2021/04/11 10:38:56;;;;;;;1.77;1.00;;;24.50;57.50;;;;;;5093466;28;20468;-82
2021/04/11 10:41:50;;;;;;;1.23;0.80;;;24.50;57.60;;;;;;5092903;28;20434;-83
2021/04/11 10:44:36;;;;;;;1.10;0.90;;;24.50;57.40;;;;;;5090703;28;20481;-84
2021/04/11 10:47:26;;;;;;;2.00;0.87;;;24.50;57.40;;;;;;5092745;28;20435;-88
2021/04/11 10:50:02;;;;;;;10.00;1.00;;;24.50;56.30;;;;;;5072600;28;20436;-86
2021/04/11 10:52:47;;;;;;;1.27;1.00;;;24.40;56.00;;;;;;5092877;28;20448;-88
2021/04/11 10:55:42;;;;;;;1.00;0.90;;;24.40;56.00;;;;;;5093136;28;20446;-87
2021/04/11 10:58:36;;;;;;;1.00;0.80;;;24.50;56.30;;;;;;5096746;28;20446;-86
2021/04/11 11:01:11;;;;;;;1.00;0.90;;;24.40;56.30;;;;;;5093442;28;20465;-89
2021/04/11 11:04:28;;;;;;;1.20;0.80;;;24.40;56.30;;;;;;5094371;28;20485;-88
2021/04/11 11:07:18;;;;;;;1.00;0.80;;;24.40;56.70;;;;;;5016049;28;20438;-93
2021/04/11 11:09:50;;;;;;;1.77;0.80;;;24.40;56.20;;;;;;5091558;28;20837;-94
2021/04/11 11:12:58;;;;;;;2.50;0.80;;;24.40;56.10;;;;;;5100067;28;20522;-93
2021/04/11 11:18:36;;;;;;;2.37;0.80;;;24.40;56.10;;;;;;4996018;28;20466;-90
2021/04/11 11:21:26;;;;;;;3.30;0.83;;;24.40;56.10;;;;;;4997048;28;20453;-90
2021/04/11 11:24:16;;;;;;;1.77;0.80;;;24.60;56.20;;;;;;4997077;28;20479;-84
2021/04/11 11:27:12;;;;;;;1.17;0.90;;;24.40;56.10;;;;;;4996715;28;20437;-84
2021/04/11 11:30:08;;;;;;;1.50;1.20;;;24.50;56.40;;;;;;4996895;28;20452;-86
2021/04/11 11:32:44;;;;;;;2.50;0.90;;;24.50;56.40;;;;;;4996598;28;20439;-85
2021/04/11 11:35:14;;;;;;;1.97;0.90;;;24.40;56.50;;;;;;4999563;28;20438;-93
2021/04/11 11:38:01;;;;;;;2.50;1.17;;;24.50;56.50;;;;;;4997775;28;20804;-92
2021/04/11 11:40:34;;;;;;;1.10;0.80;;;24.50;56.50;;;;;;4996676;28;20480;-95
2021/04/11 11:43:11;;;;;;;1.00;0.90;;;24.50;56.60;;;;;;4999902;28;20499;-91
2021/04/11 11:45:45;;;;;;;0.90;0.60;;;24.60;56.70;;;;;;5018488;28;20435;-94
2021/04/11 11:48:30;;;;;;;1.00;0.70;;;24.70;56.80;;;;;;5013151;28;20439;-94
2021/04/11 11:51:01;;;;;;;1.40;1.00;;;24.50;56.60;;;;;;5005982;28;20450;-94
2021/04/11 11:53:33;;;;;;;1.10;0.90;;;24.50;56.60;;;;;;5000886;28;20466;-89
2021/04/11 11:56:19;;;;;;;1.10;0.90;;;24.50;56.60;;;;;;4999137;28;20450;-91
2021/04/11 11:58:51;;;;;;;1.10;0.80;;;24.80;56.80;;;;;;4996737;28;20501;-89
2021/04/11 12:01:29;;;;;;;1.53;0.87;;;24.50;56.60;;;;;;4997038;28;20806;-93
2021/04/11 12:04:14;;;;;;;1.00;0.80;;;24.50;56.60;;;;;;4996790;28;20458;-89
2021/04/11 12:06:47;;;;;;;1.40;0.80;;;24.50;56.70;;;;;;4996856;28;20446;-88
2021/04/11 12:09:19;;;;;;;1.37;0.80;;;24.70;56.90;;;;;;5000162;28;20443;-88
2021/04/11 12:11:50;;;;;;;1.10;0.90;;;24.50;56.80;;;;;;4997300;28;20439;-88
2021/04/11 12:14:22;;;;;;;1.10;0.90;;;24.50;56.80;;;;;;4996771;28;20444;-83
2021/04/11 12:17:01;;;;;;;1.67;0.80;;;24.70;56.90;;;;;;4996223;28;20834;-82
2021/04/11 12:19:32;;;;;;;1.10;0.63;;;24.50;56.80;;;;;;4996411;28;20924;-86
2021/04/11 12:22:04;;;;;;;1.83;0.77;;;24.50;56.80;;;;;;4995969;28;20546;-86
2021/04/11 12:24:34;;;;;;;1.27;1.00;;;24.50;56.50;;;;;;4995916;28;20443;-87
2021/04/11 12:27:04;;;;;;;1.30;0.83;;;24.50;56.70;;;;;;4996534;28;20441;-88
2021/04/11 12:29:33;;;;;;;1.20;0.80;;;24.50;56.80;;;;;;4996487;28;21041;-89
2021/04/11 12:32:14;;;;;;;1.73;0.70;;;24.50;56.80;;;;;;4996057;28;20461;-88
2021/04/11 12:34:49;;;;;;;1.40;0.87;;;24.60;56.80;;;;;;4995815;28;20504;-83
2021/04/11 12:37:24;;;;;;;1.60;1.00;;;24.50;56.80;;;;;;4996390;28;20446;-89
2021/04/11 12:40:03;;;;;;;1.60;1.07;;;24.50;55.70;;;;;;4997838;28;20517;-90
2021/04/11 12:42:43;;;;;;;1.13;1.03;;;24.50;55.80;;;;;;5002036;28;20552;-90
2021/04/11 12:45:18;;;;;;;1.13;0.90;;;24.50;55.70;;;;;;5004375;28;20508;-89
2021/04/11 12:47:55;;;;;;;1.73;1.37;;;24.50;55.70;;;;;;4981476;28;20470;-86
2021/04/11 12:50:29;;;;;;;3.27;0.90;;;24.50;55.70;;;;;;4997473;28;20450;-88
2021/04/11 12:53:04;;;;;;;2.80;1.07;;;24.50;55.50;;;;;;4998021;28;20470;-86
2021/04/11 12:55:34;;;;;;;2.23;0.83;;;24.50;55.50;;;;;;4999187;28;20446;-87
2021/04/11 12:58:06;;;;;;;1.27;0.80;;;24.50;55.40;;;;;;4998736;28;20502;-92
2021/04/11 13:00:35;;;;;;;1.00;0.70;;;24.50;55.40;;;;;;4995906;28;20435;-83
2021/04/11 13:03:10;;;;;;;1.23;0.90;;;24.40;56.00;;;;;;4995333;28;20517;-83
2021/04/11 13:05:42;;;;;;;4.27;0.90;;;24.50;56.20;;;;;;4995739;28;20457;-83
2021/04/11 13:08:16;;;;;;;2.40;0.80;;;24.50;56.30;;;;;;4995160;28;20443;-83
2021/04/11 13:10:57;;;;;;;2.00;0.70;;;24.60;56.40;;;;;;4995111;28;20442;-84
2021/04/11 13:13:30;;;;;;;1.27;0.90;;;24.50;56.30;;;;;;4995055;28;20870;-83
2021/04/11 13:16:03;;;;;;;1.00;0.80;;;24.50;56.40;;;;;;4995122;28;20878;-83
2021/04/11 13:18:38;;;;;;;1.70;1.40;;;24.50;56.50;;;;;;4995960;28;20447;-83
2021/04/11 13:21:10;;;;;;;1.63;0.80;;;24.50;56.40;;;;;;4996013;28;20441;-86
2021/04/11 13:23:48;;;;;;;1.60;1.00;;;24.50;56.40;;;;;;4996500;28;20502;-85
2021/04/11 13:26:23;;;;;;;1.90;0.93;;;24.50;55.80;;;;;;4997083;28;20931;-86
2021/04/11 13:29:01;;;;;;;1.00;0.83;;;24.50;55.80;;;;;;4997745;28;20446;-86
2021/04/11 13:31:41;;;;;;;2.37;0.90;;;24.50;55.70;;;;;;4996469;28;20853;-86
2021/04/11 13:34:16;;;;;;;1.40;0.90;;;24.50;55.70;;;;;;4995583;28;21021;-86
2021/04/11 13:36:45;;;;;;;1.13;0.90;;;24.50;55.70;;;;;;4994654;28;20451;-84
2021/04/11 13:39:20;;;;;;;1.17;1.00;;;24.50;55.60;;;;;;4994405;28;20454;-85
2021/04/11 13:42:15;;;;;;;2.33;0.87;;;24.50;55.50;;;;;;4994356;28;20437;-84